sensor_id;sensor_type;location;lat;lon;timestamp;pressure;altitude;pressure_sealevel;temperature;humidity
22214;BME280;11276;43.566;27.824;2022-07-22T00:00:38;98885.88;;;20.99;100.00
22214;BME280;11276;43.566;27.824;2022-07-22T00:03:05;98878.38;;;20.88;100.00
22214;BME280;11276;43.566;27.824;2022-07-22T00:05:32;98855.19;;;20.74;100.00
22214;BME280;11276;43.566;27.824;2022-07-22T00:07:58;98877.75;;;20.86;100.00
22214;BME280;11276;43.566;27.824;2022-07-22T00:10:25;98856.19;;;20.73;100.00
22214;BME280;11276;43.566;27.824;2022-07-22T00:12:52;98879.34;;;20.81;100.00
22214;BME280;11276;43.566;27.824;2022-07-22T00:15:19;98881.75;;;20.76;100.00
22214;BME280;11276;43.566;27.824;2022-07-22T00:17:46;98860.03;;;20.64;100.00
22214;BME280;11276;43.566;27.824;2022-07-22T00:20:12;98881.13;;;20.74;100.00
22214;BME280;11276;43.566;27.824;2022-07-22T00:22:39;98887.69;;;20.71;100.00
22214;BME280;11276;43.566;27.824;2022-07-22T00:25:06;98873.22;;;20.66;100.00
22214;BME280;11276;43.566;27.824;2022-07-22T00:27:33;98894.44;;;20.67;100.00
22214;BME280;11276;43.566;27.824;2022-07-22T00:30:00;98885.13;;;20.63;100.00
22214;BME280;11276;43.566;27.824;2022-07-22T00:32:27;98887.19;;;20.61;100.00
22214;BME280;11276;43.566;27.824;2022-07-22T00:34:54;98903.66;;;20.65;100.00
22214;BME280;11276;43.566;27.824;2022-07-22T00:37:20;98898.91;;;20.60;100.00
22214;BME280;11276;43.566;27.824;2022-07-22T00:39:47;98894.56;;;20.59;100.00
22214;BME280;11276;43.566;27.824;2022-07-22T00:42:14;98898.63;;;20.55;100.00
22214;BME280;11276;43.566;27.824;2022-07-22T00:44:41;98898.63;;;20.55;100.00
22214;BME280;11276;43.566;27.824;2022-07-22T00:47:09;98897.16;;;20.52;100.00
22214;BME280;11276;43.566;27.824;2022-07-22T00:49:35;98893.69;;;20.52;100.00
22214;BME280;11276;43.566;27.824;2022-07-22T00:52:03;98902.06;;;20.49;100.00
22214;BME280;11276;43.566;27.824;2022-07-22T00:54:31;98880.53;;;20.36;100.00
22214;BME280;11276;43.566;27.824;2022-07-22T00:56:58;98901.78;;;20.44;100.00
22214;BME280;11276;43.566;27.824;2022-07-22T00:59:25;98891.03;;;20.37;100.00
22214;BME280;11276;43.566;27.824;2022-07-22T01:01:51;98892.75;;;20.45;100.00
22214;BME280;11276;43.566;27.824;2022-07-22T01:04:18;98900.53;;;20.40;100.00
22214;BME280;11276;43.566;27.824;2022-07-22T01:06:46;98876.91;;;20.29;100.00
22214;BME280;11276;43.566;27.824;2022-07-22T01:09:13;98901.91;;;20.36;100.00
22214;BME280;11276;43.566;27.824;2022-07-22T01:11:41;98889.66;;;20.27;100.00
22214;BME280;11276;43.566;27.824;2022-07-22T01:14:08;98902.50;;;20.31;100.00
22214;BME280;11276;43.566;27.824;2022-07-22T01:16:35;98902.81;;;20.28;100.00
22214;BME280;11276;43.566;27.824;2022-07-22T01:19:03;98903.19;;;20.25;100.00
22214;BME280;11276;43.566;27.824;2022-07-22T01:21:31;98907.34;;;20.28;100.00
22214;BME280;11276;43.566;27.824;2022-07-22T01:23:58;98901.94;;;20.21;100.00
22214;BME280;11276;43.566;27.824;2022-07-22T01:26:25;98881.19;;;20.08;100.00
22214;BME280;11276;43.566;27.824;2022-07-22T01:28:52;98895.34;;;20.24;100.00
22214;BME280;11276;43.566;27.824;2022-07-22T01:31:19;98896.19;;;20.24;100.00
22214;BME280;11276;43.566;27.824;2022-07-22T01:33:46;98899.88;;;20.23;100.00
22214;BME280;11276;43.566;27.824;2022-07-22T01:36:14;98905.44;;;20.22;100.00
22214;BME280;11276;43.566;27.824;2022-07-22T01:38:41;98893.44;;;20.17;100.00
22214;BME280;11276;43.566;27.824;2022-07-22T01:41:08;98892.41;;;20.18;100.00
22214;BME280;11276;43.566;27.824;2022-07-22T01:43:34;98894.66;;;20.15;100.00
22214;BME280;11276;43.566;27.824;2022-07-22T01:46:01;98882.47;;;20.12;100.00
22214;BME280;11276;43.566;27.824;2022-07-22T01:48:28;98871.63;;;19.99;100.00
22214;BME280;11276;43.566;27.824;2022-07-22T01:50:55;98882.03;;;20.09;100.00
22214;BME280;11276;43.566;27.824;2022-07-22T01:53:22;98882.22;;;20.07;100.00
22214;BME280;11276;43.566;27.824;2022-07-22T01:55:49;98883.59;;;20.03;100.00
22214;BME280;11276;43.566;27.824;2022-07-22T01:58:15;98866.75;;;19.88;100.00
22214;BME280;11276;43.566;27.824;2022-07-22T02:00:42;98881.03;;;19.95;100.00
22214;BME280;11276;43.566;27.824;2022-07-22T02:03:10;98853.69;;;19.78;100.00
22214;BME280;11276;43.566;27.824;2022-07-22T02:05:38;98865.19;;;19.79;100.00
22214;BME280;11276;43.566;27.824;2022-07-22T02:08:08;98878.75;;;19.92;100.00
22214;BME280;11276;43.566;27.824;2022-07-22T02:10:36;98875.25;;;19.92;100.00
22214;BME280;11276;43.566;27.824;2022-07-22T02:13:04;98871.91;;;19.90;100.00
22214;BME280;11276;43.566;27.824;2022-07-22T02:15:31;98849.53;;;19.76;100.00
22214;BME280;11276;43.566;27.824;2022-07-22T02:17:58;98870.47;;;19.87;100.00
22214;BME280;11276;43.566;27.824;2022-07-22T02:20:25;98863.91;;;19.75;100.00
22214;BME280;11276;43.566;27.824;2022-07-22T02:22:51;98876.53;;;19.81;100.00
22214;BME280;11276;43.566;27.824;2022-07-22T02:25:18;98873.03;;;19.81;100.00
22214;BME280;11276;43.566;27.824;2022-07-22T02:27:45;98870.91;;;19.76;100.00
22214;BME280;11276;43.566;27.824;2022-07-22T02:30:12;98873.38;;;19.77;100.00
22214;BME280;11276;43.566;27.824;2022-07-22T02:32:39;98856.56;;;19.62;100.00
22214;BME280;11276;43.566;27.824;2022-07-22T02:35:06;98867.59;;;19.74;100.00
22214;BME280;11276;43.566;27.824;2022-07-22T02:37:33;98862.34;;;19.66;100.00
22214;BME280;11276;43.566;27.824;2022-07-22T02:40:00;98859.69;;;19.66;100.00
22214;BME280;11276;43.566;27.824;2022-07-22T02:42:27;98865.75;;;19.60;100.00
22214;BME280;11276;43.566;27.824;2022-07-22T02:44:54;98884.34;;;19.68;100.00
22214;BME280;11276;43.566;27.824;2022-07-22T02:47:21;98889.63;;;19.61;100.00
22214;BME280;11276;43.566;27.824;2022-07-22T02:49:47;98869.53;;;19.51;100.00
22214;BME280;11276;43.566;27.824;2022-07-22T02:52:14;98883.91;;;19.64;100.00
22214;BME280;11276;43.566;27.824;2022-07-22T02:54:41;98881.88;;;19.66;100.00
22214;BME280;11276;43.566;27.824;2022-07-22T02:57:08;98868.16;;;19.55;100.00
22214;BME280;11276;43.566;27.824;2022-07-22T02:59:35;98888.13;;;19.59;100.00
22214;BME280;11276;43.566;27.824;2022-07-22T03:02:02;98888.41;;;19.64;100.00
22214;BME280;11276;43.566;27.824;2022-07-22T03:04:29;98898.38;;;19.70;100.00
22214;BME280;11276;43.566;27.824;2022-07-22T03:06:55;98894.69;;;19.71;100.00
22214;BME280;11276;43.566;27.824;2022-07-22T03:09:22;98893.41;;;19.67;100.00
22214;BME280;11276;43.566;27.824;2022-07-22T03:11:49;98895.41;;;19.65;100.00
22214;BME280;11276;43.566;27.824;2022-07-22T03:14:16;98886.41;;;19.66;100.00
22214;BME280;11276;43.566;27.824;2022-07-22T03:16:44;98894.69;;;19.71;100.00
22214;BME280;11276;43.566;27.824;2022-07-22T03:19:12;98893.03;;;19.70;100.00
22214;BME280;11276;43.566;27.824;2022-07-22T03:21:38;98870.72;;;19.63;100.00
22214;BME280;11276;43.566;27.824;2022-07-22T03:24:05;98871.19;;;19.66;100.00
22214;BME280;11276;43.566;27.824;2022-07-22T03:26:32;98896.91;;;19.82;100.00
22214;BME280;11276;43.566;27.824;2022-07-22T03:28:59;98883.91;;;19.64;100.00
22214;BME280;11276;43.566;27.824;2022-07-22T03:31:26;98899.31;;;19.77;100.00
22214;BME280;11276;43.566;27.824;2022-07-22T03:33:53;98887.22;;;19.66;100.00
22214;BME280;11276;43.566;27.824;2022-07-22T03:36:20;98911.63;;;19.78;100.00
22214;BME280;11276;43.566;27.824;2022-07-22T03:38:47;98894.59;;;19.79;100.00
22214;BME280;11276;43.566;27.824;2022-07-22T03:41:13;98905.00;;;19.89;100.00
22214;BME280;11276;43.566;27.824;2022-07-22T03:43:40;98880.88;;;19.82;100.00
22214;BME280;11276;43.566;27.824;2022-07-22T03:46:07;98904.91;;;19.97;100.00
22214;BME280;11276;43.566;27.824;2022-07-22T03:48:34;98894.13;;;19.90;100.00
22214;BME280;11276;43.566;27.824;2022-07-22T03:51:00;98914.31;;;20.07;100.00
22214;BME280;11276;43.566;27.824;2022-07-22T03:53:27;98916.22;;;20.13;100.00
22214;BME280;11276;43.566;27.824;2022-07-22T03:55:55;98915.28;;;20.21;100.00
22214;BME280;11276;43.566;27.824;2022-07-22T03:58:22;98910.00;;;20.28;100.00
22214;BME280;11276;43.566;27.824;2022-07-22T04:00:48;98899.03;;;20.23;100.00
22214;BME280;11276;43.566;27.824;2022-07-22T04:03:15;98914.91;;;20.39;100.00
22214;BME280;11276;43.566;27.824;2022-07-22T04:05:42;98928.19;;;20.47;100.00
22214;BME280;11276;43.566;27.824;2022-07-22T04:08:09;98924.09;;;20.51;100.00
22214;BME280;11276;43.566;27.824;2022-07-22T04:10:35;98927.94;;;20.63;100.00
22214;BME280;11276;43.566;27.824;2022-07-22T04:13:02;98930.44;;;20.65;100.00
22214;BME280;11276;43.566;27.824;2022-07-22T04:15:29;98905.66;;;20.56;100.00
22214;BME280;11276;43.566;27.824;2022-07-22T04:17:56;98927.88;;;20.78;100.00
22214;BME280;11276;43.566;27.824;2022-07-22T04:20:23;98931.03;;;20.81;100.00
22214;BME280;11276;43.566;27.824;2022-07-22T04:22:49;98926.56;;;20.88;100.00
22214;BME280;11276;43.566;27.824;2022-07-22T04:25:16;98925.78;;;20.94;100.00
22214;BME280;11276;43.566;27.824;2022-07-22T04:27:43;98930.44;;;21.07;100.00
22214;BME280;11276;43.566;27.824;2022-07-22T04:30:10;98921.72;;;21.20;100.00
22214;BME280;11276;43.566;27.824;2022-07-22T04:32:37;98927.75;;;21.28;100.00
22214;BME280;11276;43.566;27.824;2022-07-22T04:35:04;98923.72;;;21.39;100.00
22214;BME280;11276;43.566;27.824;2022-07-22T04:37:31;98924.88;;;21.51;100.00
22214;BME280;11276;43.566;27.824;2022-07-22T04:39:58;98916.44;;;21.54;100.00
22214;BME280;11276;43.566;27.824;2022-07-22T04:42:24;98928.06;;;21.68;100.00
22214;BME280;11276;43.566;27.824;2022-07-22T04:44:51;98935.97;;;21.82;100.00
22214;BME280;11276;43.566;27.824;2022-07-22T04:47:18;98923.63;;;21.81;100.00
22214;BME280;11276;43.566;27.824;2022-07-22T04:49:45;98923.72;;;21.95;100.00
22214;BME280;11276;43.566;27.824;2022-07-22T04:52:11;98939.06;;;22.14;100.00
22214;BME280;11276;43.566;27.824;2022-07-22T04:54:38;98939.50;;;22.17;100.00
22214;BME280;11276;43.566;27.824;2022-07-22T04:57:05;98926.09;;;22.17;100.00
22214;BME280;11276;43.566;27.824;2022-07-22T04:59:32;98930.06;;;22.28;99.13
22214;BME280;11276;43.566;27.824;2022-07-22T05:01:58;98941.69;;;22.48;99.18
22214;BME280;11276;43.566;27.824;2022-07-22T05:04:25;98923.56;;;22.50;97.15
22214;BME280;11276;43.566;27.824;2022-07-22T05:06:52;98931.41;;;22.58;97.20
22214;BME280;11276;43.566;27.824;2022-07-22T05:09:19;98931.69;;;22.77;96.27
22214;BME280;11276;43.566;27.824;2022-07-22T05:11:45;98928.63;;;22.80;94.72
22214;BME280;11276;43.566;27.824;2022-07-22T05:14:12;98928.22;;;22.89;94.41
22214;BME280;11276;43.566;27.824;2022-07-22T05:16:39;98949.31;;;23.12;93.72
22214;BME280;11276;43.566;27.824;2022-07-22T05:19:06;98944.78;;;23.19;92.15
22214;BME280;11276;43.566;27.824;2022-07-22T05:21:33;98954.72;;;23.25;91.41
22214;BME280;11276;43.566;27.824;2022-07-22T05:24:00;98937.97;;;23.30;88.96
22214;BME280;11276;43.566;27.824;2022-07-22T05:26:27;98927.03;;;23.31;88.15
22214;BME280;11276;43.566;27.824;2022-07-22T05:28:55;98928.84;;;23.37;86.44
22214;BME280;11276;43.566;27.824;2022-07-22T05:31:23;98941.09;;;23.53;86.13
22214;BME280;11276;43.566;27.824;2022-07-22T05:33:50;98935.72;;;23.59;85.08
22214;BME280;11276;43.566;27.824;2022-07-22T05:36:18;98936.94;;;23.64;84.17
22214;BME280;11276;43.566;27.824;2022-07-22T05:38:45;98933.22;;;23.65;83.04
22214;BME280;11276;43.566;27.824;2022-07-22T05:41:11;98940.66;;;23.76;82.50
22214;BME280;11276;43.566;27.824;2022-07-22T05:43:38;98945.38;;;23.87;80.64
22214;BME280;11276;43.566;27.824;2022-07-22T05:46:05;98934.41;;;23.95;80.01
22214;BME280;11276;43.566;27.824;2022-07-22T05:48:33;98935.00;;;23.97;80.59
22214;BME280;11276;43.566;27.824;2022-07-22T05:51:00;98932.50;;;24.09;78.75
22214;BME280;11276;43.566;27.824;2022-07-22T05:53:27;98941.38;;;24.22;77.06
22214;BME280;11276;43.566;27.824;2022-07-22T05:55:54;98941.16;;;24.30;74.06
22214;BME280;11276;43.566;27.824;2022-07-22T05:58:20;98937.19;;;24.39;73.89
22214;BME280;11276;43.566;27.824;2022-07-22T06:00:47;98931.34;;;24.42;73.69
22214;BME280;11276;43.566;27.824;2022-07-22T06:03:14;98942.41;;;24.66;74.59
22214;BME280;11276;43.566;27.824;2022-07-22T06:05:43;98940.25;;;24.81;72.73
22214;BME280;11276;43.566;27.824;2022-07-22T06:08:10;98936.50;;;24.95;69.91
22214;BME280;11276;43.566;27.824;2022-07-22T06:10:37;98926.06;;;25.05;67.60
22214;BME280;11276;43.566;27.824;2022-07-22T06:13:04;98928.38;;;25.26;67.63
22214;BME280;11276;43.566;27.824;2022-07-22T06:15:30;98918.25;;;25.47;64.46
22214;BME280;11276;43.566;27.824;2022-07-22T06:17:57;98943.97;;;25.74;61.23
22214;BME280;11276;43.566;27.824;2022-07-22T06:20:24;98950.63;;;26.33;59.30
22214;BME280;11276;43.566;27.824;2022-07-22T06:22:51;98936.13;;;26.93;56.18
22214;BME280;11276;43.566;27.824;2022-07-22T06:25:17;98939.75;;;28.74;51.63
22214;BME280;11276;43.566;27.824;2022-07-22T06:28:04;98937.22;;;30.83;44.80
22214;BME280;11276;43.566;27.824;2022-07-22T06:30:31;98937.63;;;31.55;42.39
22214;BME280;11276;43.566;27.824;2022-07-22T06:32:57;98944.00;;;31.39;40.82
22214;BME280;11276;43.566;27.824;2022-07-22T06:35:24;98945.00;;;31.23;41.18
22214;BME280;11276;43.566;27.824;2022-07-22T06:37:52;98939.72;;;30.89;41.65
22214;BME280;11276;43.566;27.824;2022-07-22T06:40:29;98939.50;;;30.69;42.21
22214;BME280;11276;43.566;27.824;2022-07-22T06:42:56;98936.78;;;30.69;42.37
22214;BME280;11276;43.566;27.824;2022-07-22T06:45:23;98933.94;;;30.81;42.28
22214;BME280;11276;43.566;27.824;2022-07-22T06:47:49;98938.00;;;31.05;40.47
22214;BME280;11276;43.566;27.824;2022-07-22T06:50:16;98925.00;;;30.85;38.84
22214;BME280;11276;43.566;27.824;2022-07-22T06:52:43;98941.31;;;30.85;38.81
22214;BME280;11276;43.566;27.824;2022-07-22T06:55:10;98938.06;;;30.61;38.64
22214;BME280;11276;43.566;27.824;2022-07-22T06:57:37;98921.47;;;30.58;37.86
22214;BME280;11276;43.566;27.824;2022-07-22T07:00:05;98941.91;;;31.46;37.32
22214;BME280;11276;43.566;27.824;2022-07-22T07:02:33;98916.47;;;32.66;34.46
22214;BME280;11276;43.566;27.824;2022-07-22T07:05:00;98934.56;;;33.89;31.97
22214;BME280;11276;43.566;27.824;2022-07-22T07:07:27;98936.88;;;34.95;29.76
22214;BME280;11276;43.566;27.824;2022-07-22T07:09:54;98944.91;;;35.88;28.02
22214;BME280;11276;43.566;27.824;2022-07-22T07:12:21;98928.44;;;36.41;26.58
22214;BME280;11276;43.566;27.824;2022-07-22T07:14:47;98927.16;;;36.76;25.01
22214;BME280;11276;43.566;27.824;2022-07-22T07:17:30;98941.41;;;36.54;25.83
22214;BME280;11276;43.566;27.824;2022-07-22T07:19:57;98943.78;;;37.03;24.82
22214;BME280;11276;43.566;27.824;2022-07-22T07:22:24;98943.94;;;38.09;23.31
22214;BME280;11276;43.566;27.824;2022-07-22T07:24:51;98926.97;;;37.88;23.28
22214;BME280;11276;43.566;27.824;2022-07-22T07:27:18;98953.72;;;38.01;23.39
22214;BME280;11276;43.566;27.824;2022-07-22T07:29:44;98945.16;;;38.57;22.58
22214;BME280;11276;43.566;27.824;2022-07-22T07:32:12;98942.72;;;38.28;22.43
22214;BME280;11276;43.566;27.824;2022-07-22T07:34:39;98926.59;;;37.95;22.79
22214;BME280;11276;43.566;27.824;2022-07-22T07:37:05;98934.34;;;38.74;22.93
22214;BME280;11276;43.566;27.824;2022-07-22T07:39:32;98931.47;;;38.80;22.41
22214;BME280;11276;43.566;27.824;2022-07-22T07:41:59;98944.72;;;39.49;21.10
22214;BME280;11276;43.566;27.824;2022-07-22T07:44:26;98942.94;;;39.76;21.65
22214;BME280;11276;43.566;27.824;2022-07-22T07:46:53;98927.47;;;39.97;20.70
22214;BME280;11276;43.566;27.824;2022-07-22T07:49:19;98932.00;;;39.93;20.88
22214;BME280;11276;43.566;27.824;2022-07-22T07:51:46;98948.38;;;39.89;21.04
22214;BME280;11276;43.566;27.824;2022-07-22T07:54:13;98926.63;;;39.88;20.87
22214;BME280;11276;43.566;27.824;2022-07-22T07:56:40;98936.53;;;40.20;20.75
22214;BME280;11276;43.566;27.824;2022-07-22T07:59:07;98936.25;;;40.38;20.86
22214;BME280;11276;43.566;27.824;2022-07-22T08:01:49;98948.06;;;40.78;20.45
22214;BME280;11276;43.566;27.824;2022-07-22T08:04:25;98960.53;;;40.76;20.11
22214;BME280;11276;43.566;27.824;2022-07-22T08:07:01;98941.22;;;41.02;20.07
22214;BME280;11276;43.566;27.824;2022-07-22T08:09:29;98945.78;;;41.15;19.55
22214;BME280;11276;43.566;27.824;2022-07-22T08:11:56;98942.03;;;41.02;19.78
22214;BME280;11276;43.566;27.824;2022-07-22T08:14:22;98946.06;;;41.65;19.25
22214;BME280;11276;43.566;27.824;2022-07-22T08:16:51;98948.69;;;41.01;19.28
22214;BME280;11276;43.566;27.824;2022-07-22T08:19:17;98943.69;;;41.20;19.20
22214;BME280;11276;43.566;27.824;2022-07-22T08:21:44;98943.84;;;40.90;19.44
22214;BME280;11276;43.566;27.824;2022-07-22T08:24:11;98949.84;;;41.69;19.09
22214;BME280;11276;43.566;27.824;2022-07-22T08:26:38;98942.59;;;41.85;18.75
22214;BME280;11276;43.566;27.824;2022-07-22T08:29:06;98945.84;;;42.04;18.15
22214;BME280;11276;43.566;27.824;2022-07-22T08:31:38;98944.63;;;41.67;19.25
22214;BME280;11276;43.566;27.824;2022-07-22T08:34:05;98946.16;;;42.03;18.43
22214;BME280;11276;43.566;27.824;2022-07-22T08:36:32;98937.81;;;41.56;19.07
22214;BME280;11276;43.566;27.824;2022-07-22T08:38:59;98929.38;;;41.53;19.00
22214;BME280;11276;43.566;27.824;2022-07-22T08:41:26;98949.56;;;41.45;19.03
22214;BME280;11276;43.566;27.824;2022-07-22T08:43:53;98948.50;;;41.75;19.22
22214;BME280;11276;43.566;27.824;2022-07-22T08:46:20;98939.81;;;41.04;19.64
22214;BME280;11276;43.566;27.824;2022-07-22T08:48:47;98960.78;;;41.48;19.23
22214;BME280;11276;43.566;27.824;2022-07-22T08:51:14;98928.22;;;41.54;18.53
22214;BME280;11276;43.566;27.824;2022-07-22T08:53:40;98951.81;;;41.25;18.55
22214;BME280;11276;43.566;27.824;2022-07-22T08:56:07;98946.09;;;40.88;27.07
22214;BME280;11276;43.566;27.824;2022-07-22T08:58:34;98956.84;;;41.41;23.86
22214;BME280;11276;43.566;27.824;2022-07-22T09:03:32;98957.13;;;40.70;22.83
22214;BME280;11276;43.566;27.824;2022-07-22T09:05:59;98948.91;;;40.00;23.27
22214;BME280;11276;43.566;27.824;2022-07-22T09:08:27;98946.56;;;39.85;21.49
22214;BME280;11276;43.566;27.824;2022-07-22T09:10:53;98947.63;;;40.06;22.23
22214;BME280;11276;43.566;27.824;2022-07-22T09:13:22;98939.19;;;39.49;23.00
22214;BME280;11276;43.566;27.824;2022-07-22T09:15:54;98947.69;;;38.95;23.67
22214;BME280;11276;43.566;27.824;2022-07-22T09:18:21;98946.16;;;39.11;23.50
22214;BME280;11276;43.566;27.824;2022-07-22T09:20:48;98945.31;;;39.46;21.55
22214;BME280;11276;43.566;27.824;2022-07-22T09:23:18;98940.78;;;38.15;23.07
22214;BME280;11276;43.566;27.824;2022-07-22T09:25:48;98939.03;;;38.33;22.96
22214;BME280;11276;43.566;27.824;2022-07-22T09:28:17;98947.22;;;38.11;23.30
22214;BME280;11276;43.566;27.824;2022-07-22T09:30:53;98940.84;;;37.97;24.65
22214;BME280;11276;43.566;27.824;2022-07-22T09:33:21;98926.03;;;37.65;23.64
22214;BME280;11276;43.566;27.824;2022-07-22T09:35:49;98939.50;;;37.48;23.36
22214;BME280;11276;43.566;27.824;2022-07-22T09:38:19;98927.91;;;37.51;23.45
22214;BME280;11276;43.566;27.824;2022-07-22T09:40:52;98945.47;;;37.55;24.63
22214;BME280;11276;43.566;27.824;2022-07-22T09:43:20;98921.88;;;37.17;24.51
22214;BME280;11276;43.566;27.824;2022-07-22T09:45:52;98940.25;;;36.60;24.46
22214;BME280;11276;43.566;27.824;2022-07-22T09:48:26;98939.19;;;35.17;25.87
22214;BME280;11276;43.566;27.824;2022-07-22T09:50:54;98926.81;;;35.87;25.84
22214;BME280;11276;43.566;27.824;2022-07-22T09:53:24;98941.38;;;36.11;26.11
22214;BME280;11276;43.566;27.824;2022-07-22T09:55:53;98923.84;;;36.07;26.15
22214;BME280;11276;43.566;27.824;2022-07-22T09:58:20;98922.75;;;36.08;25.80
22214;BME280;11276;43.566;27.824;2022-07-22T10:00:47;98936.44;;;36.13;25.72
22214;BME280;11276;43.566;27.824;2022-07-22T10:03:28;98926.03;;;36.10;26.50
22214;BME280;11276;43.566;27.824;2022-07-22T10:05:56;98917.41;;;36.22;25.48
22214;BME280;11276;43.566;27.824;2022-07-22T10:08:27;98930.84;;;36.23;24.83
22214;BME280;11276;43.566;27.824;2022-07-22T10:11:02;98912.94;;;36.02;25.29
22214;BME280;11276;43.566;27.824;2022-07-22T10:13:30;98931.25;;;35.83;24.99
22214;BME280;11276;43.566;27.824;2022-07-22T10:15:58;98929.50;;;35.92;25.75
22214;BME280;11276;43.566;27.824;2022-07-22T10:18:26;98923.28;;;35.87;25.69
22214;BME280;11276;43.566;27.824;2022-07-22T10:21:07;98926.81;;;35.87;26.63
22214;BME280;11276;43.566;27.824;2022-07-22T10:23:35;98907.13;;;35.85;26.27
22214;BME280;11276;43.566;27.824;2022-07-22T10:26:03;98917.97;;;35.95;25.82
22214;BME280;11276;43.566;27.824;2022-07-22T10:28:35;98899.72;;;35.86;26.02
22214;BME280;11276;43.566;27.824;2022-07-22T10:31:21;98927.78;;;36.01;26.29
22214;BME280;11276;43.566;27.824;2022-07-22T10:33:52;98900.38;;;36.01;26.04
22214;BME280;11276;43.566;27.824;2022-07-22T10:36:35;98923.34;;;36.05;25.97
22214;BME280;11276;43.566;27.824;2022-07-22T10:39:10;98916.22;;;36.04;25.54
22214;BME280;11276;43.566;27.824;2022-07-22T10:41:42;98915.75;;;35.97;25.73
22214;BME280;11276;43.566;27.824;2022-07-22T10:44:13;98883.50;;;35.89;25.40
22214;BME280;11276;43.566;27.824;2022-07-22T10:46:55;98902.84;;;35.98;26.44
22214;BME280;11276;43.566;27.824;2022-07-22T10:49:26;98904.66;;;36.07;25.05
22214;BME280;11276;43.566;27.824;2022-07-22T10:55:16;98916.06;;;35.96;25.23
22214;BME280;11276;43.566;27.824;2022-07-22T10:57:43;98909.69;;;35.42;23.83
22214;BME280;11276;43.566;27.824;2022-07-22T11:00:10;98898.69;;;35.48;25.77
22214;BME280;11276;43.566;27.824;2022-07-22T11:02:37;98911.25;;;35.54;25.78
22214;BME280;11276;43.566;27.824;2022-07-22T11:05:05;98891.66;;;35.42;24.77
22214;BME280;11276;43.566;27.824;2022-07-22T11:07:32;98910.44;;;35.19;24.19
22214;BME280;11276;43.566;27.824;2022-07-22T11:10:14;98917.13;;;35.37;25.80
22214;BME280;11276;43.566;27.824;2022-07-22T11:12:43;98895.94;;;35.19;24.33
22214;BME280;11276;43.566;27.824;2022-07-22T11:15:11;98889.09;;;35.16;25.18
22214;BME280;11276;43.566;27.824;2022-07-22T11:17:38;98907.53;;;35.39;25.65
22214;BME280;11276;43.566;27.824;2022-07-22T11:20:08;98886.81;;;35.28;23.91
22214;BME280;11276;43.566;27.824;2022-07-22T11:22:36;98890.59;;;35.32;25.32
22214;BME280;11276;43.566;27.824;2022-07-22T11:25:06;98888.41;;;35.34;25.61
22214;BME280;11276;43.566;27.824;2022-07-22T11:27:33;98883.47;;;35.36;24.82
22214;BME280;11276;43.566;27.824;2022-07-22T11:30:00;98893.38;;;35.27;24.32
22214;BME280;11276;43.566;27.824;2022-07-22T11:32:30;98904.94;;;35.24;26.23
22214;BME280;11276;43.566;27.824;2022-07-22T11:34:58;98899.66;;;35.33;24.88
22214;BME280;11276;43.566;27.824;2022-07-22T11:37:27;98896.25;;;35.07;25.07
22214;BME280;11276;43.566;27.824;2022-07-22T11:40:04;98886.94;;;35.08;26.59
22214;BME280;11276;43.566;27.824;2022-07-22T11:42:32;98895.94;;;35.14;25.70
22214;BME280;11276;43.566;27.824;2022-07-22T11:44:59;98886.53;;;35.30;25.13
22214;BME280;11276;43.566;27.824;2022-07-22T11:47:26;98872.97;;;35.10;25.62
22214;BME280;11276;43.566;27.824;2022-07-22T11:49:53;98891.22;;;35.24;25.56
22214;BME280;11276;43.566;27.824;2022-07-22T11:52:19;98891.16;;;35.34;25.85
22214;BME280;11276;43.566;27.824;2022-07-22T11:54:46;98874.81;;;35.24;24.94
22214;BME280;11276;43.566;27.824;2022-07-22T11:57:14;98897.84;;;35.13;23.31
22214;BME280;11276;43.566;27.824;2022-07-22T11:59:41;98891.78;;;35.26;24.00
22214;BME280;11276;43.566;27.824;2022-07-22T12:02:08;98887.44;;;35.20;23.17
22214;BME280;11276;43.566;27.824;2022-07-22T12:04:36;98901.66;;;35.22;22.88
22214;BME280;11276;43.566;27.824;2022-07-22T12:07:04;98872.75;;;35.06;22.98
22214;BME280;11276;43.566;27.824;2022-07-22T12:09:35;98892.94;;;35.15;22.92
22214;BME280;11276;43.566;27.824;2022-07-22T12:12:03;98881.50;;;35.03;23.17
22214;BME280;11276;43.566;27.824;2022-07-22T12:14:32;98891.38;;;35.04;21.60
22214;BME280;11276;43.566;27.824;2022-07-22T12:19:28;98886.63;;;34.81;22.08
22214;BME280;11276;43.566;27.824;2022-07-22T12:22:11;98900.22;;;34.91;21.84
22214;BME280;11276;43.566;27.824;2022-07-22T12:24:44;98890.69;;;34.83;22.08
22214;BME280;11276;43.566;27.824;2022-07-22T12:27:14;98896.50;;;34.77;23.28
22214;BME280;11276;43.566;27.824;2022-07-22T12:29:44;98892.44;;;34.64;22.52
22214;BME280;11276;43.566;27.824;2022-07-22T12:32:25;98875.78;;;34.61;23.02
22214;BME280;11276;43.566;27.824;2022-07-22T12:35:00;98887.78;;;34.65;22.38
22214;BME280;11276;43.566;27.824;2022-07-22T12:37:34;98871.69;;;34.53;23.08
22214;BME280;11276;43.566;27.824;2022-07-22T12:40:18;98880.00;;;34.33;23.68
22214;BME280;11276;43.566;27.824;2022-07-22T12:43:10;98866.06;;;34.34;23.08
22214;BME280;11276;43.566;27.824;2022-07-22T12:45:36;98884.56;;;34.52;24.45
22214;BME280;11276;43.566;27.824;2022-07-22T12:53:12;98880.19;;;34.56;23.67
22214;BME280;11276;43.566;27.824;2022-07-22T12:58:14;98895.41;;;34.19;23.24
22214;BME280;11276;43.566;27.824;2022-07-22T13:00:47;98885.81;;;34.26;23.97
22214;BME280;11276;43.566;27.824;2022-07-22T13:03:14;98888.78;;;34.30;23.41
22214;BME280;11276;43.566;27.824;2022-07-22T13:05:41;98884.16;;;34.25;23.58